createdAt,value
2022-11-05T00:00:04.251Z,11.43
2022-11-05T00:03:10.566Z,12.55
2022-11-05T00:06:16.383Z,13.57
2022-11-05T00:09:23.790Z,19.23
2022-11-05T00:12:31.356Z,16.92
2022-11-05T00:15:37.032Z,19.10
2022-11-05T00:18:24.399Z,14.00
2022-11-05T00:21:29.984Z,14.40
2022-11-05T00:24:36.147Z,14.75
2022-11-05T00:27:23.361Z,16.70
2022-11-05T00:30:11.953Z,15.95
2022-11-05T00:33:04.850Z,16.67
2022-11-05T00:35:51.876Z,17.08
2022-11-05T00:38:38.942Z,19.00
2022-11-05T00:41:25.977Z,17.00
2022-11-05T00:44:31.655Z,21.92
2022-11-05T00:47:37.293Z,16.30
2022-11-05T00:50:24.809Z,13.25
2022-11-05T00:53:12.237Z,14.80
2022-11-05T00:56:00.562Z,14.20
2022-11-05T00:58:48.785Z,14.48
2022-11-05T01:01:36.048Z,14.00
2022-11-05T01:04:23.583Z,14.38
2022-11-05T01:07:10.798Z,15.77
2022-11-05T01:09:57.825Z,26.88
2022-11-05T01:12:44.904Z,28.73
2022-11-05T01:15:31.958Z,29.25
2022-11-05T01:18:20.285Z,26.95
2022-11-05T01:21:13.140Z,26.55
2022-11-05T01:24:01.168Z,28.48
2022-11-05T01:26:48.227Z,31.80
2022-11-05T01:29:35.262Z,26.48
2022-11-05T01:32:22.324Z,22.48
2022-11-05T01:35:14.667Z,27.08
2022-11-05T01:38:02.213Z,16.23
2022-11-05T01:40:49.489Z,15.65
2022-11-05T01:43:50.640Z,14.73
2022-11-05T01:46:46.089Z,13.98
2022-11-05T01:49:34.471Z,10.77
2022-11-05T01:52:22.541Z,8.93
2022-11-05T01:55:10.291Z,9.10
2022-11-05T01:58:00.281Z,8.75
2022-11-05T02:00:47.736Z,8.63
2022-11-05T02:03:35.178Z,7.97
2022-11-05T02:06:22.277Z,7.68
2022-11-05T02:09:16.319Z,6.95
2022-11-05T02:12:03.755Z,7.60
2022-11-05T02:14:50.838Z,7.03
2022-11-05T02:17:56.225Z,5.90
2022-11-05T02:21:28.348Z,7.45
2022-11-05T02:24:40.772Z,6.93
2022-11-05T02:27:54.037Z,6.05
2022-11-05T02:30:49.569Z,5.97
2022-11-05T02:33:57.992Z,5.80
2022-11-05T02:37:14.589Z,6.22
2022-11-05T02:40:13.516Z,6.88
2022-11-05T02:43:30.288Z,7.50
2022-11-05T02:46:42.117Z,7.80
2022-11-05T02:49:59.115Z,7.32
2022-11-05T02:52:55.233Z,7.50
2022-11-05T02:55:49.538Z,7.78
2022-11-05T02:58:36.747Z,7.03
2022-11-05T03:01:23.992Z,7.10
2022-11-05T03:04:13.014Z,7.50
2022-11-05T03:07:26.407Z,9.15
2022-11-05T03:10:36.554Z,8.23
2022-11-05T03:13:33.824Z,8.45
2022-11-05T03:16:41.435Z,8.60
2022-11-05T03:19:38.436Z,9.05
2022-11-05T03:22:40.323Z,8.52
2022-11-05T03:25:30.362Z,8.88
2022-11-05T03:28:21.256Z,8.65
2022-11-05T03:31:11.362Z,8.90
2022-11-05T03:34:01.115Z,9.75
2022-11-05T03:36:52.144Z,9.63
2022-11-05T03:39:45.683Z,10.50
2022-11-05T03:42:36.992Z,12.68
2022-11-05T03:45:32.651Z,9.38
2022-11-05T03:48:22.483Z,8.15
2022-11-05T03:51:29.487Z,7.05
2022-11-05T03:54:16.676Z,7.03
2022-11-05T03:57:06.639Z,7.78
2022-11-05T03:59:53.749Z,8.43
2022-11-05T04:02:41.834Z,7.47
2022-11-05T04:05:29.251Z,6.72
2022-11-05T04:08:35.069Z,8.68
2022-11-05T04:11:40.718Z,8.80
2022-11-05T04:14:27.763Z,7.75
2022-11-05T04:17:14.892Z,10.38
2022-11-05T04:20:20.603Z,13.88
2022-11-05T04:23:26.349Z,7.50
2022-11-05T04:26:13.593Z,6.93
2022-11-05T04:29:19.704Z,7.95
2022-11-05T04:32:06.873Z,6.50
2022-11-05T04:34:54.377Z,6.13
2022-11-05T04:37:41.521Z,7.95
2022-11-05T04:40:30.141Z,9.93
2022-11-05T04:43:19.352Z,9.80
2022-11-05T04:46:07.091Z,9.68
2022-11-05T04:48:54.152Z,8.57
2022-11-05T04:51:41.377Z,9.65
2022-11-05T04:54:28.443Z,9.60
2022-11-05T04:57:15.658Z,9.52
2022-11-05T05:00:03.621Z,9.50
2022-11-05T05:02:51.086Z,7.00
2022-11-05T05:05:38.245Z,9.10
2022-11-05T05:08:25.291Z,8.43
2022-11-05T05:11:14.951Z,8.10
2022-11-05T05:14:02.030Z,7.00
2022-11-05T05:16:49.088Z,11.45
2022-11-05T05:19:56.108Z,7.53
2022-11-05T05:22:43.178Z,10.05
2022-11-05T05:25:31.144Z,11.05
2022-11-05T05:28:18.249Z,11.85
2022-11-05T05:31:05.399Z,8.82
2022-11-05T05:33:54.440Z,7.88
2022-11-05T05:36:41.750Z,9.60
2022-11-05T05:39:28.957Z,10.15
2022-11-05T05:42:16.125Z,6.95
2022-11-05T05:45:03.286Z,7.45
2022-11-05T05:47:50.620Z,8.52
2022-11-05T05:50:37.712Z,8.93
2022-11-05T05:53:27.660Z,9.15
2022-11-05T05:56:19.054Z,10.38
2022-11-05T05:59:06.301Z,10.23
2022-11-05T06:01:53.512Z,8.70
2022-11-05T06:04:40.608Z,7.90
2022-11-05T06:07:29.090Z,8.65
2022-11-05T06:10:17.786Z,8.32
2022-11-05T06:13:05.003Z,7.95
2022-11-05T06:15:52.442Z,6.78
2022-11-05T06:18:39.641Z,7.80
2022-11-05T06:21:26.706Z,8.00
2022-11-05T06:24:13.816Z,8.50
2022-11-05T06:27:00.910Z,8.05
2022-11-05T06:29:48.077Z,5.65
2022-11-05T06:32:35.176Z,5.07
2022-11-05T06:35:22.248Z,4.82
2022-11-05T06:38:09.395Z,6.13
2022-11-05T06:40:58.516Z,5.97
2022-11-05T06:43:45.597Z,5.60
2022-11-05T06:46:32.692Z,6.03
2022-11-05T06:49:19.753Z,5.78
2022-11-05T06:52:06.865Z,5.90
2022-11-05T06:54:54.099Z,5.45
2022-11-05T06:57:41.176Z,5.10
2022-11-05T07:00:28.346Z,6.07
2022-11-05T07:03:15.628Z,5.38
2022-11-05T07:06:04.580Z,5.28
2022-11-05T07:08:51.701Z,5.22
2022-11-05T07:11:38.785Z,5.60
2022-11-05T07:14:25.866Z,3.92
2022-11-05T07:17:12.896Z,4.68
2022-11-05T07:19:59.956Z,4.63
2022-11-05T07:22:47.006Z,4.20
2022-11-05T07:25:34.679Z,4.28
2022-11-05T07:28:21.763Z,3.75
2022-11-05T07:31:08.939Z,4.00
2022-11-05T07:33:56.118Z,3.63
2022-11-05T07:36:43.248Z,3.35
2022-11-05T07:39:30.361Z,3.50
2022-11-05T07:42:17.498Z,3.53
2022-11-05T07:45:05.637Z,3.90
2022-11-05T07:47:55.295Z,1.80
2022-11-05T07:50:42.453Z,5.18
2022-11-05T07:53:29.485Z,3.58
2022-11-05T07:56:16.603Z,2.20
2022-11-05T07:59:03.803Z,2.72
2022-11-05T08:01:51.048Z,2.75
2022-11-05T08:04:40.226Z,2.38
2022-11-05T08:07:28.239Z,2.72
2022-11-05T08:10:15.411Z,2.60
2022-11-05T08:13:02.557Z,2.60
2022-11-05T08:15:49.654Z,3.63
2022-11-05T08:18:36.824Z,3.78
2022-11-05T08:21:24.057Z,3.25
2022-11-05T08:24:11.202Z,4.03
2022-11-05T08:26:58.309Z,4.47
2022-11-05T08:29:45.389Z,4.13
2022-11-05T08:32:32.573Z,3.40
2022-11-05T08:35:20.332Z,3.33
2022-11-05T08:38:10.067Z,4.30
2022-11-05T08:40:58.084Z,4.75
2022-11-05T08:43:45.136Z,3.83
2022-11-05T08:46:32.208Z,4.00
2022-11-05T08:49:19.250Z,3.10
2022-11-05T08:52:06.336Z,2.92
2022-11-05T08:54:53.403Z,3.08
2022-11-05T08:57:40.506Z,3.00
2022-11-05T09:00:29.741Z,3.33
2022-11-05T09:03:17.248Z,4.10
2022-11-05T09:06:04.525Z,3.53
2022-11-05T09:08:51.630Z,3.92
2022-11-05T09:12:09.855Z,3.53
2022-11-05T09:14:45.818Z,2.08
2022-11-05T09:17:32.920Z,2.72
2022-11-05T09:20:19.996Z,2.60
2022-11-05T09:23:08.636Z,5.45
2022-11-05T09:25:55.905Z,3.08
2022-11-05T09:28:43.668Z,3.10
2022-11-05T09:31:30.797Z,3.55
2022-11-05T09:34:17.819Z,3.42
2022-11-05T09:37:04.916Z,4.72
2022-11-05T09:39:53.159Z,4.22
2022-11-05T09:42:46.150Z,3.85
2022-11-05T09:45:35.064Z,2.72
2022-11-05T09:48:27.646Z,3.45
2022-11-05T09:51:22.463Z,3.40
2022-11-05T09:54:13.010Z,3.75
2022-11-05T09:57:02.302Z,4.43
2022-11-05T09:59:52.809Z,5.40
2022-11-05T10:03:03.060Z,4.70
2022-11-05T10:05:52.172Z,3.53
2022-11-05T10:08:44.109Z,3.35
2022-11-05T10:11:41.958Z,3.38
2022-11-05T10:14:43.122Z,3.38
2022-11-05T10:17:37.851Z,3.50
2022-11-05T10:20:38.153Z,3.72
2022-11-05T10:23:26.686Z,3.00
2022-11-05T10:26:19.753Z,4.15
2022-11-05T10:29:06.928Z,3.58
2022-11-05T10:31:56.227Z,3.17
2022-11-05T10:34:44.284Z,4.72
2022-11-05T10:37:35.853Z,4.38
2022-11-05T10:40:43.739Z,4.57
2022-11-05T10:43:32.772Z,3.30
2022-11-05T10:46:22.804Z,3.00
2022-11-05T10:49:26.198Z,3.35
2022-11-05T10:52:24.464Z,4.70
2022-11-05T10:55:36.214Z,4.65
2022-11-05T10:58:29.057Z,5.30
2022-11-05T11:01:16.373Z,5.05
2022-11-05T11:04:12.704Z,5.60
2022-11-05T11:07:00.197Z,4.15
2022-11-05T11:09:48.965Z,4.30
2022-11-05T11:12:41.124Z,3.30
2022-11-05T11:15:32.826Z,4.10
2022-11-05T11:18:35.877Z,4.15
2022-11-05T11:21:26.867Z,4.18
2022-11-05T11:24:23.219Z,4.53
2022-11-05T11:27:22.230Z,3.50
2022-11-05T11:30:17.961Z,3.90
2022-11-05T11:33:08.772Z,4.45
2022-11-05T11:38:43.416Z,5.00
2022-11-05T11:41:42.594Z,5.82
2022-11-05T11:44:34.779Z,6.40
2022-11-05T11:47:22.483Z,5.70
2022-11-05T11:50:42.712Z,4.93
2022-11-05T11:53:34.581Z,5.30
2022-11-05T11:56:21.956Z,4.40
2022-11-05T11:59:35.131Z,4.75
2022-11-05T12:02:29.528Z,4.03
2022-11-05T12:05:28.796Z,4.60
2022-11-05T12:08:44.992Z,4.40
2022-11-05T12:11:47.969Z,4.18
2022-11-05T12:14:46.924Z,5.28
2022-11-05T12:17:52.200Z,3.92
2022-11-05T12:20:50.037Z,3.28
2022-11-05T12:23:44.637Z,4.75
2022-11-05T12:27:11.074Z,4.70
2022-11-05T12:30:18.502Z,4.75
2022-11-05T12:33:33.720Z,4.82
2022-11-05T12:36:51.808Z,3.25
2022-11-05T12:39:58.037Z,3.95
2022-11-05T12:43:11.936Z,4.70
2022-11-05T12:46:38.194Z,4.97
2022-11-05T12:49:45.838Z,6.22
2022-11-05T12:52:51.531Z,6.70
2022-11-05T12:55:47.063Z,4.22
2022-11-05T12:58:41.270Z,4.30
2022-11-05T13:01:39.581Z,3.70
2022-11-05T13:04:40.425Z,4.55
2022-11-05T13:07:35.828Z,4.65
2022-11-05T13:10:35.174Z,4.95
2022-11-05T13:13:42.865Z,4.75
2022-11-05T13:16:37.584Z,4.90
2022-11-05T13:19:35.620Z,6.78
2022-11-05T13:22:44.467Z,4.90
2022-11-05T13:25:35.824Z,4.80
2022-11-05T13:28:38.242Z,4.05
2022-11-05T13:31:31.981Z,4.20
2022-11-05T13:34:19.051Z,5.13
2022-11-05T13:37:27.271Z,5.40
2022-11-05T13:40:18.167Z,5.05
2022-11-05T13:43:23.594Z,4.60
2022-11-05T13:46:22.974Z,4.40
2022-11-05T13:49:34.629Z,5.30
2022-11-05T13:52:58.810Z,4.97
2022-11-05T13:56:07.746Z,4.72
2022-11-05T13:59:24.050Z,4.70
2022-11-05T14:02:19.727Z,4.65
2022-11-05T14:05:08.521Z,4.75
2022-11-05T14:07:57.861Z,4.10
2022-11-05T14:10:57.050Z,5.18
2022-11-05T14:13:46.359Z,5.40
2022-11-05T14:17:14.184Z,5.70
2022-11-05T14:20:01.186Z,4.40
2022-11-05T14:22:48.585Z,3.88
2022-11-05T14:25:35.742Z,4.15
2022-11-05T14:28:34.969Z,4.93
2022-11-05T14:31:41.100Z,4.70
2022-11-05T14:34:42.067Z,4.40
2022-11-05T14:37:30.632Z,4.82
2022-11-05T14:40:43.406Z,3.45
2022-11-05T14:43:33.233Z,4.20
2022-11-05T14:46:20.680Z,4.47
2022-11-05T14:49:18.264Z,4.07
2022-11-05T14:52:11.054Z,4.15
2022-11-05T14:54:58.686Z,3.97
2022-11-05T14:57:47.113Z,3.83
2022-11-05T15:00:36.766Z,3.60
2022-11-05T15:03:47.089Z,3.72
2022-11-05T15:06:36.650Z,3.45
2022-11-05T15:09:35.039Z,3.33
2022-11-05T15:12:32.478Z,2.75
2022-11-05T15:15:23.633Z,2.85
2022-11-05T15:21:06.966Z,3.50
2022-11-05T15:23:56.751Z,16.45
2022-11-05T15:27:02.723Z,5.50
2022-11-05T15:29:50.138Z,4.30
2022-11-05T15:32:38.633Z,4.50
2022-11-05T15:35:28.712Z,4.00
2022-11-05T15:38:35.206Z,3.97
2022-11-05T15:41:27.106Z,3.47
2022-11-05T15:44:52.734Z,3.47
2022-11-05T15:47:46.036Z,4.60
2022-11-05T15:50:33.112Z,3.25
2022-11-05T15:54:28.487Z,4.03
2022-11-05T15:57:02.300Z,4.13
2022-11-05T15:59:49.570Z,5.85
2022-11-05T16:02:37.453Z,6.28
2022-11-05T16:05:27.943Z,6.68
2022-11-05T16:08:20.320Z,6.30
2022-11-05T16:11:08.893Z,6.65
2022-11-05T16:14:18.581Z,7.38
2022-11-05T16:17:21.570Z,8.93
2022-11-05T16:20:34.645Z,8.35
2022-11-05T16:23:25.275Z,6.90
2022-11-05T16:29:47.073Z,9.60
2022-11-05T16:32:34.719Z,9.73
2022-11-05T16:35:24.886Z,9.60
2022-11-05T16:38:14.410Z,10.07
2022-11-05T16:41:02.070Z,8.82
2022-11-05T16:44:00.631Z,9.07
2022-11-05T16:46:49.471Z,8.93
2022-11-05T16:49:38.803Z,12.25
2022-11-05T16:52:26.458Z,13.98
2022-11-05T16:55:15.411Z,11.05
2022-11-05T16:58:02.591Z,9.55
2022-11-05T17:00:54.362Z,9.60
2022-11-05T17:03:41.570Z,9.73
2022-11-05T17:06:28.848Z,9.13
2022-11-05T17:09:17.455Z,10.32
2022-11-05T17:12:04.845Z,8.75
2022-11-05T17:14:51.918Z,10.77
2022-11-05T17:17:39.066Z,9.90
2022-11-05T17:20:42.733Z,11.75
2022-11-05T17:23:30.034Z,10.65
2022-11-05T17:26:17.186Z,12.18
2022-11-05T17:29:04.278Z,10.98
2022-11-05T17:31:51.532Z,11.75
2022-11-05T17:34:40.252Z,11.10
2022-11-05T17:37:27.377Z,11.50
2022-11-05T17:40:17.242Z,10.93
2022-11-05T17:43:04.465Z,11.68
2022-11-05T17:45:52.787Z,11.70
2022-11-05T17:48:41.119Z,12.95
2022-11-05T17:51:28.229Z,13.02
2022-11-05T17:54:16.032Z,13.15
2022-11-05T17:57:04.581Z,13.18
2022-11-05T17:59:51.676Z,12.82
2022-11-05T18:02:38.913Z,14.13
2022-11-05T18:05:27.874Z,13.68
2022-11-05T18:08:15.344Z,15.10
2022-11-05T18:11:02.412Z,13.80
2022-11-05T18:13:49.568Z,13.68
2022-11-05T18:16:36.933Z,13.68
2022-11-05T18:19:24.064Z,14.50
2022-11-05T18:22:11.147Z,12.85
2022-11-05T18:24:58.312Z,11.80
2022-11-05T18:27:45.488Z,10.88
2022-11-05T18:30:32.814Z,11.70
2022-11-05T18:33:20.825Z,12.07
2022-11-05T18:36:16.051Z,11.63
2022-11-05T18:39:04.857Z,12.60
2022-11-05T18:41:52.898Z,12.38
2022-11-05T18:44:40.061Z,13.50
2022-11-05T18:47:27.434Z,13.00
2022-11-05T18:50:14.979Z,12.32
2022-11-05T18:53:02.109Z,12.25
2022-11-05T18:55:49.521Z,13.57
2022-11-05T18:58:37.427Z,12.98
2022-11-05T19:01:27.372Z,14.20
2022-11-05T19:04:14.777Z,15.38
2022-11-05T19:07:05.223Z,17.33
2022-11-05T19:09:53.109Z,15.10
2022-11-05T19:12:40.259Z,14.27
2022-11-05T19:15:27.525Z,13.60
2022-11-05T19:18:14.944Z,12.70
2022-11-05T19:21:02.547Z,11.70
2022-11-05T19:23:50.995Z,11.63
2022-11-05T19:26:38.202Z,12.80
2022-11-05T19:29:25.372Z,11.95
2022-11-05T19:32:12.456Z,11.82
2022-11-05T19:34:59.581Z,10.70
2022-11-05T19:37:46.933Z,12.95
2022-11-05T19:40:37.578Z,13.13
2022-11-05T19:43:24.699Z,14.02
2022-11-05T19:46:17.356Z,14.20
2022-11-05T19:49:04.569Z,13.68
2022-11-05T19:51:51.865Z,14.80
2022-11-05T19:54:39.190Z,14.20
2022-11-05T19:57:26.277Z,14.93
2022-11-05T20:00:13.963Z,14.50
2022-11-05T20:03:01.785Z,14.43
2022-11-05T20:05:48.991Z,13.95
2022-11-05T20:08:47.900Z,14.50
2022-11-05T20:11:45.029Z,13.43
2022-11-05T20:14:33.313Z,14.90
2022-11-05T20:17:20.594Z,14.43
2022-11-05T20:20:08.178Z,14.30
2022-11-05T20:22:55.406Z,14.70
2022-11-05T20:25:42.626Z,15.55
2022-11-05T20:28:30.651Z,15.27
2022-11-05T20:31:18.509Z,14.52
2022-11-05T20:34:05.546Z,13.95
2022-11-05T20:36:52.872Z,16.02
2022-11-05T20:39:40.146Z,16.67
2022-11-05T20:42:27.351Z,15.90
2022-11-05T20:45:14.428Z,14.30
2022-11-05T20:48:01.570Z,15.73
2022-11-05T20:50:48.820Z,14.93
2022-11-05T20:53:36.582Z,15.23
2022-11-05T20:56:26.455Z,15.38
2022-11-05T20:59:13.944Z,15.98
2022-11-05T21:02:01.634Z,15.85
2022-11-05T21:04:49.042Z,15.23
2022-11-05T21:07:36.193Z,16.27
2022-11-05T21:10:24.039Z,15.45
2022-11-05T21:13:11.282Z,15.75
2022-11-05T21:16:00.007Z,14.68
2022-11-05T21:18:47.651Z,15.00
2022-11-05T21:21:38.738Z,15.55
2022-11-05T21:24:28.215Z,15.80
2022-11-05T21:27:15.294Z,13.60
2022-11-05T21:30:03.320Z,12.93
2022-11-05T21:32:50.431Z,12.90
2022-11-05T21:35:43.985Z,14.60
2022-11-05T21:38:31.132Z,13.98
2022-11-05T21:41:18.145Z,13.05
2022-11-05T21:44:05.422Z,12.68
2022-11-05T21:46:56.315Z,14.40
2022-11-05T21:49:43.494Z,12.65
2022-11-05T21:52:49.310Z,12.50
2022-11-05T21:55:59.713Z,12.45
2022-11-05T21:59:05.466Z,12.38
2022-11-05T22:02:01.460Z,12.35
2022-11-05T22:04:52.355Z,11.57
2022-11-05T22:07:39.441Z,11.68
2022-11-05T22:10:26.600Z,12.32
2022-11-05T22:13:13.665Z,12.73
2022-11-05T22:16:00.847Z,12.73
2022-11-05T22:18:47.961Z,12.73
2022-11-05T22:21:35.084Z,11.63
2022-11-05T22:24:22.493Z,14.05
2022-11-05T22:27:13.883Z,13.63
2022-11-05T22:30:01.018Z,13.45
2022-11-05T22:32:48.067Z,15.18
2022-11-05T22:35:35.137Z,16.10
2022-11-05T22:38:22.617Z,14.48
2022-11-05T22:41:22.485Z,15.55
2022-11-05T22:44:10.684Z,15.90
2022-11-05T22:46:57.821Z,15.60
2022-11-05T22:49:45.408Z,18.15
2022-11-05T22:52:32.699Z,19.13
2022-11-05T22:55:19.813Z,17.70
2022-11-05T22:58:06.924Z,16.70
2022-11-05T23:00:53.957Z,16.52
2022-11-05T23:03:43.575Z,17.17
2022-11-05T23:06:55.397Z,17.20
2022-11-05T23:10:01.033Z,17.08
2022-11-05T23:12:48.227Z,16.85
2022-11-05T23:15:54.097Z,17.73
2022-11-05T23:18:59.844Z,17.55
2022-11-05T23:22:05.591Z,17.27
2022-11-05T23:24:52.656Z,19.23
2022-11-05T23:27:41.307Z,19.00
2022-11-05T23:30:31.077Z,19.75
2022-11-05T23:33:42.890Z,18.80
2022-11-05T23:36:48.587Z,19.30
2022-11-05T23:39:39.815Z,18.92
2022-11-05T23:42:48.534Z,18.90
2022-11-05T23:46:00.283Z,18.95
2022-11-05T23:48:47.660Z,18.85
2022-11-05T23:51:34.708Z,18.55
2022-11-05T23:54:22.436Z,21.92
2022-11-05T23:57:09.669Z,20.90
2022-11-05T23:59:56.964Z,24.05
